| time (UTC) | temp F | wind direction | speed knots | gust knots | rain 1hr in | rain 24hr in | rain mn in | humidity % | barometer mb |
| 20260507184659 | 73 | 356 | 0.0 | 1.7 | 0.00 | 0.98 | 0.98 | 94 | 1012.2 |
| 20260507183159 | 73 | 342 | 0.0 | 0.0 | 0.01 | 0.98 | 0.98 | 94 | 1012.5 |
| 20260507181659 | 72 | 347 | 0.0 | 0.0 | 0.02 | 0.98 | 0.98 | 94 | 1012.7 |
| 20260507180159 | 72 | 9 | 0.0 | 1.7 | 0.03 | 0.98 | 0.98 | 94 | 1012.6 |
| 20260507174659 | 71 | 255 | 0.0 | 0.0 | 0.12 | 0.98 | 0.98 | 95 | 1013.3 |
| 20260507173158 | 71 | 15 | 0.0 | 1.7 | 0.15 | 0.97 | 0.97 | 94 | 1013.0 |
| 20260507171658 | 71 | 15 | 0.0 | 0.0 | 0.14 | 0.96 | 0.96 | 95 | 1013.2 |
| 20260507170158 | 72 | 170 | 0.0 | 0.0 | 0.13 | 0.95 | 0.95 | 94 | 1012.3 |
| 20260507164658 | 72 | 60 | 0.0 | 0.0 | 0.05 | 0.86 | 0.86 | 94 | 1013.5 |
| 20260507163157 | 72 | 60 | 0.0 | 0.0 | 0.01 | 0.82 | 0.82 | 94 | 1012.9 |
| 20260507161657 | 71 | 61 | 0.0 | 1.7 | 0.04 | 0.82 | 0.82 | 94 | 1012.7 |
| 20260507160157 | 70 | 189 | 0.0 | 0.0 | 0.51 | 0.82 | 0.82 | 94 | 1013.3 |
| 20260507154657 | 70 | 208 | 0.0 | 0.0 | 0.69 | 0.81 | 0.81 | 95 | 1013.5 |
| 20260507153156 | 69 | 230 | 0.0 | 0.0 | 0.69 | 0.81 | 0.81 | 95 | 1013.3 |
| 20260507151656 | 69 | 165 | 1.7 | 2.6 | 0.66 | 0.78 | 0.78 | 95 | 1013.3 |
| 20260507150157 | 71 | 11 | 5.2 | 7.0 | 0.19 | 0.31 | 0.31 | 93 | 1013.8 |
| 20260507144655 | 74 | 24 | 1.7 | 1.7 | 0.00 | 0.12 | 0.12 | 94 | 1013.7 |
| 20260507143156 | 76 | 11 | 0.0 | 0.0 | 0.00 | 0.12 | 0.12 | 95 | 1012.4 |
| 20260507141655 | 76 | 94 | 0.0 | 0.0 | 0.12 | 0.12 | 0.12 | 95 | 1011.6 |
| 20260507140155 | 76 | 235 | 0.0 | 2.6 | 0.12 | 0.12 | 0.12 | 95 | 1011.9 |
| 20260507134655 | 76 | 12 | 0.0 | 0.0 | 0.12 | 0.12 | 0.12 | 95 | 1011.9 |
| 20260507133154 | 76 | 34 | 0.0 | 1.7 | 0.12 | 0.12 | 0.12 | 93 | 1012.2 |
| 20260507130154 | 79 | 220 | 0.0 | 4.3 | 0.00 | 0.00 | 0.00 | 88 | 1011.6 |
| 20260507124654 | 78 | 181 | 0.0 | 1.7 | 0.00 | 0.00 | 0.00 | 90 | 1011.9 |
| 20260507123154 | 77 | 186 | 0.0 | 0.0 | 0.00 | 0.00 | 0.00 | 91 | 1011.8 |
| 20260507121654 | 77 | 340 | 0.0 | 2.6 | 0.00 | 0.00 | 0.00 | 91 | 1011.6 |
| 20260507120153 | 76 | 263 | 1.7 | 2.6 | 0.00 | 0.00 | 0.00 | 92 | 1011.2 |
| 20260507114653 | 76 | 224 | 4.3 | 5.2 | 0.00 | 0.00 | 0.00 | 92 | 1010.9 |
| 20260507111653 | 76 | 215 | 0.0 | 0.0 | 0.00 | 0.00 | 0.00 | 92 | 1010.8 |
| 20260507110152 | 76 | 212 | 0.0 | 0.0 | 0.00 | 0.00 | 0.00 | 92 | 1011.0 |
| 20260507104652 | 76 | 236 | 0.0 | 1.7 | 0.00 | 0.00 | 0.00 | 92 | 1010.4 |
| 20260507103152 | 76 | 130 | 0.0 | 1.7 | 0.00 | 0.00 | 0.00 | 93 | 1010.3 |
| 20260507100151 | 76 | 215 | 0.0 | 2.6 | 0.00 | 0.00 | 0.00 | 93 | 1010.1 |
| 20260507094651 | 76 | 165 | 2.6 | 4.3 | 0.00 | 0.00 | 0.00 | 94 | 1010.3 |
| 20260507093151 | 76 | 78 | 4.3 | 4.3 | 0.00 | 0.00 | 0.00 | 94 | 1010.2 |
| 20260507091651 | 75 | 158 | 5.2 | 7.8 | 0.00 | 0.00 | 0.00 | 94 | 1010.0 |
| 20260507090150 | 76 | 200 | 2.6 | 4.3 | 0.00 | 0.00 | 0.00 | 94 | 1009.9 |
| 20260507084650 | 76 | 219 | 10.4 | 12.2 | 0.00 | 0.00 | 0.00 | 94 | 1010.0 |
| 20260507081650 | 76 | 233 | 0.0 | 4.3 | 0.00 | 0.00 | 0.00 | 94 | 1010.6 |
| 20260507080150 | 75 | 137 | 1.7 | 7.8 | 0.00 | 0.00 | 0.00 | 94 | 1010.6 |
| 20260507074649 | 75 | 158 | 7.0 | 12.2 | 0.00 | 0.00 | 0.00 | 94 | 1010.6 |
| 20260507073149 | 75 | 177 | 4.3 | 5.2 | 0.00 | 0.00 | 0.00 | 94 | 1011.0 |
| 20260507071649 | 75 | 199 | 2.6 | 7.0 | 0.00 | 0.00 | 0.00 | 94 | 1011.1 |
| 20260507070148 | 75 | 214 | 1.7 | 4.3 | 0.00 | 0.00 | 0.00 | 94 | 1011.4 |
| 20260507064648 | 75 | 162 | 1.7 | 4.3 | 0.00 | 0.00 | 0.00 | 94 | 1011.2 |
| 20260507063148 | 75 | 174 | 2.6 | 7.8 | 0.00 | 0.00 | 0.00 | 94 | 1011.2 |
| 20260507061648 | 75 | 173 | 0.0 | 4.3 | 0.00 | 0.00 | 0.00 | 94 | 1011.3 |
| 20260507060148 | 75 | 193 | 2.6 | 5.2 | 0.00 | 0.00 | 0.00 | 94 | 1011.2 |
| 20260507054647 | 75 | 153 | 7.8 | 12.2 | 0.00 | 0.00 | 0.00 | 94 | 1011.8 |
| 20260507053148 | 75 | 161 | 4.3 | 4.3 | 0.00 | 0.00 | 0.00 | 94 | 1012.3 |
| 20260507051647 | 75 | 226 | 0.0 | 2.6 | 0.00 | 0.00 | 0.00 | 94 | 1012.0 |
| 20260507050147 | 75 | 132 | 2.6 | 2.6 | 0.00 | 0.00 | 0.00 | 94 | 1012.2 |
| 20260507044647 | 74 | 216 | 4.3 | 5.2 | 0.00 | 0.00 | 0.00 | 94 | 1011.5 |
| 20260507041647 | 74 | 153 | 1.7 | 7.0 | 0.00 | 0.00 | 0.00 | 94 | 1011.9 |
| 20260507040146 | 74 | 224 | 2.6 | 7.0 | 0.00 | 0.00 | 0.00 | 94 | 1012.2 |
| 20260507034646 | 74 | 98 | 4.3 | 9.6 | 0.00 | 0.00 | 0.00 | 93 | 1012.1 |
| 20260507033146 | 74 | 148 | 4.3 | 7.0 | 0.00 | 0.00 | 0.00 | 93 | 1011.8 |
| 20260507031646 | 74 | 179 | 2.6 | 5.2 | 0.00 | 0.00 | 0.00 | 93 | 1011.9 |
| 20260507024645 | 74 | 193 | 5.2 | 7.0 | 0.00 | 0.00 | 0.00 | 93 | 1012.5 |
| 20260507023145 | 74 | 241 | 2.6 | 9.6 | 0.00 | 0.00 | 0.00 | 93 | 1012.3 |
| 20260507021645 | 74 | 197 | 0.0 | 4.3 | 0.00 | 0.00 | 0.00 | 92 | 1012.0 |
| 20260507020144 | 75 | 197 | 2.6 | 7.8 | 0.00 | 0.00 | 0.00 | 92 | 1011.5 |
| 20260507014644 | 75 | 177 | 1.7 | 5.2 | 0.00 | 0.00 | 0.00 | 92 | 1011.4 |
| 20260507013144 | 75 | 172 | 2.6 | 7.8 | 0.00 | 0.00 | 0.00 | 91 | 1011.4 |
| 20260507011644 | 75 | 214 | 2.6 | 4.3 | 0.00 | 0.00 | 0.00 | 91 | 1011.8 |
| 20260507010144 | 75 | 176 | 1.7 | 4.3 | 0.00 | 0.00 | 0.00 | 91 | 1011.7 |
| 20260507004644 | 75 | 176 | 2.6 | 4.3 | 0.00 | 0.00 | 0.00 | 90 | 1011.9 |
| 20260507003143 | 75 | 210 | 2.6 | 5.2 | 0.00 | 0.00 | 0.00 | 90 | 1012.2 |
| 20260507001643 | 75 | 153 | 2.6 | 4.3 | 0.00 | 0.00 | 0.00 | 90 | 1012.0 |
| 20260507000143 | 75 | 184 | 7.8 | 10.4 | 0.00 | 0.00 | 0.00 | 90 | 1011.8 |
| 20260506234643 | 75 | 181 | 7.0 | 7.0 | 0.00 | 0.00 | 0.00 | 89 | 1011.8 |
| 20260506233142 | 75 | 146 | 5.2 | 5.2 | 0.00 | 0.00 | 0.00 | 89 | 1011.6 |
| 20260506230142 | 76 | 198 | 4.3 | 9.6 | 0.00 | 0.00 | 0.00 | 88 | 1011.8 |
| 20260506224642 | 76 | 155 | 1.7 | 4.3 | 0.00 | 0.00 | 0.00 | 89 | 1012.0 |
| 20260506223141 | 76 | 226 | 2.6 | 4.3 | 0.00 | 0.00 | 0.00 | 88 | 1012.1 |
| 20260506221642 | 76 | 180 | 2.6 | 7.8 | 0.00 | 0.00 | 0.00 | 88 | 1012.4 |
| 20260506220141 | 77 | 156 | 4.3 | 13.0 | 0.00 | 0.00 | 0.00 | 87 | 1012.3 |
| 20260506214641 | 78 | 197 | 5.2 | 5.2 | 0.00 | 0.00 | 0.00 | 85 | 1012.4 |
| 20260506213141 | 78 | 139 | 4.3 | 5.2 | 0.00 | 0.00 | 0.00 | 84 | 1012.5 |
| 20260506211641 | 78 | 203 | 2.6 | 7.0 | 0.00 | 0.00 | 0.00 | 84 | 1012.6 |
| 20260506210141 | 78 | 124 | 5.2 | 7.8 | 0.00 | 0.00 | 0.00 | 85 | 1012.6 |
| 20260506203140 | 77 | 169 | 2.6 | 7.8 | 0.00 | 0.00 | 0.00 | 87 | 1012.9 |
| 20260506201641 | 77 | 229 | 2.6 | 7.8 | 0.00 | 0.00 | 0.00 | 86 | 1013.3 |
| 20260506200140 | 77 | 167 | 1.7 | 1.7 | 0.00 | 0.00 | 0.00 | 86 | 1013.1 |
| 20260506194640 | 78 | 168 | 1.7 | 2.6 | 0.00 | 0.00 | 0.00 | 85 | 1013.4 |
| 20260506193140 | 78 | 200 | 0.0 | 0.0 | 0.00 | 0.00 | 0.00 | 84 | 1013.6 |
| 20260506191640 | 79 | 165 | 4.3 | 5.2 | 0.00 | 0.00 | 0.00 | 84 | 1013.9 |
| 20260506190139 | 78 | 174 | 0.0 | 2.6 | 0.00 | 0.00 | 0.00 | 85 | 1014.1 |